Time;durP1;ratioP1;P1;durP2;ratioP2;P2;SDS_P1;SDS_P2;PMS_P1;PMS_P2;Temp;Humidity;BMP_temperature;BMP_pressure;BME280_temperature;BME280_humidity;BME280_pressure;Samples;Min_cycle;Max_cycle;Signal;HPM_P1;HPM_P2
2022/04/22 00:01:09;;;;;;;14.45;9.45;;;12.20;87.50;;;11.09;78.69;99829.75;5048076;28;20103;-73
2022/04/22 00:03:37;;;;;;;12.93;9.10;;;12.20;87.70;;;11.07;79.14;99826.38;5034996;28;20037;-73
2022/04/22 00:06:04;;;;;;;17.95;9.18;;;12.20;87.70;;;11.03;79.27;99820.50;5033937;28;20037;-73
2022/04/22 00:08:32;;;;;;;13.95;9.68;;;12.20;87.80;;;11.02;79.04;99824.25;5067483;28;20080;-73
2022/04/22 00:13:44;;;;;;;15.50;9.55;;;12.20;87.80;;;10.98;79.64;99823.00;5052126;28;20059;-73
2022/04/22 00:16:13;;;;;;;14.32;9.20;;;12.10;87.80;;;10.97;79.73;99826.78;5053162;28;20045;-73
2022/04/22 00:18:40;;;;;;;16.33;9.05;;;12.10;88.00;;;10.92;79.76;99824.66;5036282;28;20048;-73
2022/04/22 00:21:07;;;;;;;14.07;9.35;;;12.10;88.20;;;10.94;79.69;99824.44;5050452;28;20124;-73
2022/04/22 00:23:35;;;;;;;12.55;8.63;;;12.10;88.10;;;10.94;79.91;99829.88;5053004;28;20340;-73
2022/04/22 00:26:02;;;;;;;13.95;9.07;;;12.10;88.20;;;10.94;79.69;99828.00;5052006;28;20048;-73
2022/04/22 00:28:29;;;;;;;16.25;9.35;;;12.10;88.10;;;10.92;80.00;99818.38;5051879;28;20037;-73
2022/04/22 00:30:57;;;;;;;14.88;9.80;;;12.00;88.40;;;10.87;80.09;99827.16;5050948;28;20095;-73
2022/04/22 00:33:26;;;;;;;13.45;9.10;;;12.00;88.80;;;10.84;80.48;99819.38;5051281;28;20497;-73
2022/04/22 00:35:53;;;;;;;13.25;8.13;;;12.00;89.00;;;10.83;80.44;99814.97;5052009;28;20041;-73
2022/04/22 00:38:20;;;;;;;14.57;9.00;;;11.90;89.30;;;10.79;80.90;99821.88;5067734;28;20037;-73
2022/04/22 00:40:48;;;;;;;14.02;8.68;;;11.90;89.60;;;10.77;81.00;99810.34;5039157;28;20041;-73
2022/04/22 00:43:17;;;;;;;11.73;8.50;;;11.90;89.50;;;10.75;81.09;99812.44;5039435;28;20518;-73
2022/04/22 00:45:45;;;;;;;14.88;9.18;;;11.90;89.40;;;10.73;81.13;99814.53;5043191;28;20072;-73
2022/04/22 00:48:13;;;;;;;17.23;9.02;;;11.80;89.80;;;10.72;81.53;99812.88;5051972;28;20414;-73
2022/04/22 00:50:42;;;;;;;12.98;8.82;;;11.80;90.00;;;10.66;81.75;99808.22;5046501;28;20147;-73
2022/04/22 00:53:10;;;;;;;15.57;9.52;;;11.80;90.30;;;10.67;81.73;99809.91;5047053;28;20045;-73
2022/04/22 00:55:40;;;;;;;15.63;9.82;;;11.70;90.50;;;10.64;82.07;99804.84;5053962;28;20060;-73
2022/04/22 00:58:09;;;;;;;14.95;9.18;;;11.80;90.50;;;10.64;82.26;99799.41;5049706;28;20083;-73
2022/04/22 01:00:37;;;;;;;15.15;9.90;;;11.70;90.70;;;10.61;82.38;99803.38;5048279;28;20065;-73
2022/04/22 01:03:05;;;;;;;14.93;9.70;;;11.70;90.50;;;10.59;82.45;99796.47;5039572;28;20095;-73
2022/04/22 01:11:05;;;;;;;13.65;9.98;;;11.70;90.90;;;10.52;82.96;99789.09;5051595;28;20119;-73
2022/04/22 01:13:33;;;;;;;13.82;9.38;;;11.70;91.10;;;10.48;83.03;99779.66;5048697;28;20048;-73
2022/04/22 01:16:00;;;;;;;15.55;10.20;;;11.80;91.70;;;10.46;83.36;99773.59;5051040;28;20110;-73
2022/04/22 01:18:27;;;;;;;15.82;10.52;;;11.60;91.90;;;10.47;83.49;99777.16;5034552;28;20033;-73
2022/04/22 01:21:01;;;;;;;15.15;10.48;;;11.50;92.00;;;10.44;83.76;99772.97;5050911;28;20048;-73
2022/04/22 01:23:28;;;;;;;15.32;10.65;;;11.60;91.80;;;10.42;83.84;99769.59;5048982;28;20128;-73
2022/04/22 01:25:56;;;;;;;16.40;11.40;;;11.60;91.90;;;10.41;83.91;99761.63;5031608;28;20047;-73
2022/04/22 01:28:24;;;;;;;18.45;10.18;;;11.50;91.90;;;10.41;83.85;99767.09;5044826;28;20521;-73
2022/04/22 01:30:56;;;;;;;17.83;11.25;;;11.60;91.90;;;10.41;84.21;99767.09;5050581;28;20059;-73
2022/04/22 01:33:24;;;;;;;16.30;10.73;;;11.60;92.10;;;10.40;84.10;99763.53;5051219;28;20041;-73
2022/04/22 01:35:51;;;;;;;16.38;11.60;;;11.50;92.30;;;10.40;84.25;99758.09;5053970;28;20397;-73
2022/04/22 01:38:20;;;;;;;19.15;11.13;;;11.50;92.30;;;10.39;84.50;99759.13;5046226;28;20046;-73
2022/04/22 01:40:47;;;;;;;19.35;11.98;;;11.50;92.30;;;10.36;84.52;99759.53;5043324;28;20041;-73
2022/04/22 01:43:14;;;;;;;16.08;11.23;;;11.50;92.60;;;10.36;84.52;99759.53;5050276;28;20047;-73
2022/04/22 01:45:42;;;;;;;17.73;11.98;;;11.50;92.70;;;10.36;84.61;99764.97;5045126;28;20434;-73
2022/04/22 01:48:10;;;;;;;17.75;11.55;;;11.50;92.70;;;10.33;84.64;99765.38;5043410;28;20037;-73
2022/04/22 01:50:37;;;;;;;19.88;11.68;;;11.50;92.80;;;10.30;84.93;99758.47;5047388;28;20467;-73
2022/04/22 01:53:06;;;;;;;19.20;12.15;;;11.40;92.70;;;10.29;84.93;99755.91;5049088;28;20047;-73
2022/04/22 01:55:35;;;;;;;21.35;12.15;;;11.40;92.90;;;10.32;85.02;99752.84;5049756;28;20037;-73
2022/04/22 01:58:02;;;;;;;20.17;12.50;;;11.40;92.90;;;10.32;85.06;99761.00;5050230;28;21338;-73
2022/04/22 02:00:30;;;;;;;19.35;12.23;;;11.40;92.90;;;10.33;85.18;99757.22;5050028;28;20130;-72
2022/04/22 02:02:57;;;;;;;23.85;12.50;;;11.40;93.00;;;10.31;85.25;99754.69;5045311;28;20045;-72
2022/04/22 02:05:24;;;;;;;18.65;11.88;;;11.40;93.10;;;10.30;85.45;99768.44;5045861;28;20119;-72
2022/04/22 02:07:51;;;;;;;21.50;13.48;;;11.40;93.00;;;10.31;85.58;99762.00;5030918;28;20084;-72
2022/04/22 02:10:19;;;;;;;18.92;12.80;;;11.40;93.10;;;10.31;85.65;99759.31;5047214;28;20090;-72
2022/04/22 02:12:49;;;;;;;23.38;13.70;;;11.40;93.30;;;10.31;85.49;99754.69;5035756;28;20077;-72
2022/04/22 02:15:18;;;;;;;19.95;13.23;;;11.40;93.20;;;10.33;85.58;99762.66;5050663;28;20132;-73
2022/04/22 02:17:45;;;;;;;21.27;13.25;;;11.40;93.30;;;10.31;85.75;99753.84;5033926;28;20443;-73
2022/04/22 02:20:13;;;;;;;20.88;13.02;;;11.40;93.60;;;10.36;85.86;99754.09;5044306;28;20041;-72
2022/04/22 02:22:40;;;;;;;21.33;12.68;;;11.40;93.60;;;10.36;85.81;99759.53;5049965;28;20048;-72
2022/04/22 02:25:08;;;;;;;23.15;13.55;;;11.40;93.60;;;10.36;85.80;99754.09;5049695;28;20053;-72
2022/04/22 02:30:23;;;;;;;28.85;14.57;;;11.60;93.80;;;10.37;85.97;99755.75;5049247;28;20128;-72
2022/04/22 02:32:50;;;;;;;22.00;14.32;;;11.50;93.50;;;10.37;85.77;99753.88;5041908;28;20418;-72
2022/04/22 02:35:19;;;;;;;22.02;14.15;;;11.50;93.40;;;10.36;85.78;99743.22;5057916;28;20084;-72
2022/04/22 02:37:47;;;;;;;21.92;13.60;;;11.50;93.60;;;10.37;85.96;99753.03;5030465;28;20054;-72
2022/04/22 02:45:26;;;;;;;20.40;12.93;;;11.50;93.70;;;10.38;85.89;99749.28;5047271;28;20445;-72
2022/04/22 02:45:50;;;;;;;25.05;14.50;;;11.60;94.00;;;10.32;86.47;99744.66;5038665;28;20124;-72
2022/04/22 02:48:17;;;;;;;23.25;13.93;;;11.40;94.10;;;10.29;86.39;99734.97;5043026;28;20410;-72
2022/04/22 02:50:44;;;;;;;22.10;14.05;;;11.40;94.20;;;10.31;86.02;99742.97;5043694;28;20540;-72
2022/04/22 02:53:11;;;;;;;24.55;14.80;;;11.40;94.10;;;10.28;86.44;99740.63;5042495;28;20115;-72
2022/04/22 02:55:47;;;;;;;23.90;14.10;;;11.40;94.30;;;10.26;86.71;99737.25;5029976;28;20129;-72
2022/04/22 02:58:14;;;;;;;23.33;14.82;;;11.30;94.60;;;10.27;86.59;99730.81;5054172;28;20128;-72
2022/04/22 03:00:41;;;;;;;22.42;14.82;;;11.30;94.70;;;10.24;86.90;99733.91;5048073;28;20131;-72
2022/04/22 03:03:10;;;;;;;22.45;14.43;;;11.30;94.70;;;10.22;86.80;99734.09;5049091;28;20060;-72
2022/04/22 03:05:37;;;;;;;22.40;14.85;;;11.30;94.70;;;10.20;86.94;99735.34;5049041;28;20152;-72
2022/04/22 03:08:06;;;;;;;23.38;14.25;;;11.30;94.80;;;10.19;87.13;99731.81;5047575;28;20555;-72
2022/04/22 03:10:33;;;;;;;23.27;14.38;;;11.30;94.90;;;10.18;87.16;99728.25;5040596;28;20041;-75
2022/04/22 03:13:00;;;;;;;25.17;14.90;;;11.30;94.90;;;10.17;87.14;99729.28;5047106;28;20132;-75
2022/04/22 03:15:28;;;;;;;24.73;14.55;;;11.30;95.10;;;10.15;87.46;99725.94;5049143;28;20072;-75
2022/04/22 03:17:55;;;;;;;25.33;14.70;;;11.30;95.00;;;10.15;87.44;99725.09;5049538;28;20049;-75
2022/04/22 03:20:24;;;;;;;23.75;14.88;;;11.30;94.80;;;10.13;87.43;99727.19;5036720;28;20116;-74
2022/04/22 03:22:51;;;;;;;26.92;15.60;;;11.30;95.10;;;10.09;87.75;99724.03;5035964;28;20608;-74
2022/04/22 03:25:20;;;;;;;23.52;14.95;;;11.20;95.00;;;10.07;87.99;99734.25;5048347;28;20037;-74
2022/04/22 03:27:47;;;;;;;27.98;15.85;;;11.20;95.10;;;10.03;88.12;99726.69;5031756;28;20143;-75
2022/04/22 03:30:15;;;;;;;26.27;15.52;;;11.20;95.50;;;10.06;88.32;99729.84;5061383;28;20068;-75
2022/04/22 03:32:42;;;;;;;25.77;16.23;;;11.20;95.60;;;10.03;88.17;99727.53;5048201;28;20056;-75
2022/04/22 03:35:10;;;;;;;25.10;16.20;;;11.10;95.80;;;10.04;88.42;99726.50;5049420;28;20120;-75
2022/04/22 03:37:38;;;;;;;27.95;16.20;;;11.10;96.00;;;10.01;88.43;99718.72;5048091;28;20037;-75
2022/04/22 03:40:09;;;;;;;24.33;15.68;;;11.10;95.80;;;9.98;88.58;99714.53;5047775;28;20037;-75
2022/04/22 03:42:37;;;;;;;26.70;16.48;;;11.10;95.70;;;10.01;88.50;99717.91;5052177;28;20091;-74
2022/04/22 03:45:05;;;;;;;25.27;16.77;;;11.10;95.80;;;9.98;88.75;99714.53;5051262;28;20051;-75
2022/04/22 03:47:32;;;;;;;29.67;16.88;;;11.10;96.10;;;9.94;88.61;99712.44;5052605;28;20040;-75
2022/04/22 03:49:59;;;;;;;27.05;18.23;;;11.10;96.10;;;9.92;88.93;99719.97;5053533;28;20037;-75
2022/04/22 03:52:26;;;;;;;26.38;16.73;;;11.00;96.40;;;9.89;89.44;99714.91;5046455;28;20040;-75
2022/04/22 03:54:55;;;;;;;26.38;16.45;;;11.00;96.80;;;9.88;89.41;99718.66;5045570;28;20411;-74
2022/04/22 04:00:09;;;;;;;28.80;17.20;;;10.90;96.90;;;9.87;89.63;99719.72;5052532;28;20506;-74
2022/04/22 04:02:36;;;;;;;25.15;16.60;;;10.90;96.90;;;9.84;89.49;99717.38;5046074;28;20045;-75
2022/04/22 04:05:04;;;;;;;26.50;17.00;;;11.00;96.90;;;9.85;89.66;99722.63;5053092;28;20049;-74
2022/04/22 04:07:31;;;;;;;27.55;17.27;;;11.00;96.80;;;9.84;89.63;99714.66;5052467;28;20037;-75
2022/04/22 04:18:13;;;;;;;31.25;17.92;;;11.00;97.20;;;9.78;90.38;99708.97;5052332;28;20206;-75
2022/04/22 04:23:25;;;;;;;29.67;17.70;;;10.90;97.40;;;9.79;90.11;99715.28;5045533;28;20049;-75
2022/04/22 04:25:54;;;;;;;27.67;17.52;;;10.90;97.60;;;9.81;90.38;99712.38;5052102;28;20033;-75
2022/04/22 04:28:23;;;;;;;29.13;18.52;;;10.90;97.70;;;9.78;90.47;99711.69;5053361;28;20082;-75
2022/04/22 04:30:50;;;;;;;29.33;18.88;;;10.90;97.40;;;9.80;90.76;99708.78;5050888;28;20041;-74
2022/04/22 04:33:17;;;;;;;32.50;19.42;;;10.90;97.70;;;9.78;90.82;99708.16;5051271;28;20045;-74
2022/04/22 04:35:46;;;;;;;28.10;18.13;;;10.90;97.80;;;9.79;90.82;99699.81;5052071;28;20048;-76
2022/04/22 04:38:14;;;;;;;30.83;20.30;;;10.90;97.90;;;9.78;91.06;99706.25;5051729;28;20558;-79
2022/04/22 04:40:41;;;;;;;32.97;19.92;;;10.90;98.00;;;9.78;91.12;99700.00;5042016;28;20131;-72
2022/04/22 04:43:10;;;;;;;29.30;19.75;;;10.90;98.20;;;9.76;91.64;99693.91;5049350;28;20040;-72
2022/04/22 04:45:37;;;;;;;33.10;20.70;;;10.90;98.30;;;9.77;91.61;99701.88;5042229;28;20046;-72
2022/04/22 04:48:06;;;;;;;34.63;20.75;;;10.90;98.30;;;9.78;91.80;99695.38;5032593;28;20120;-72
2022/04/22 04:50:33;;;;;;;35.33;21.88;;;11.00;98.50;;;9.78;91.82;99706.25;5039523;28;20041;-72
2022/04/22 04:53:00;;;;;;;32.30;20.67;;;10.90;98.50;;;9.78;91.85;99706.25;5047756;28;20342;-72
2022/04/22 04:55:28;;;;;;;33.42;20.45;;;11.00;98.70;;;9.79;92.18;99707.94;5049480;28;20045;-72
2022/04/22 04:57:55;;;;;;;31.67;21.67;;;11.00;98.60;;;9.83;92.47;99705.69;5048939;28;20592;-72
2022/04/22 05:00:23;;;;;;;34.17;20.75;;;11.10;98.60;;;9.85;92.42;99698.16;5043503;28;20172;-72
2022/04/22 05:02:51;;;;;;;34.83;21.50;;;11.10;98.60;;;9.84;92.35;99692.91;5040884;28;20041;-72
2022/04/22 05:05:18;;;;;;;35.40;22.98;;;11.10;98.70;;;9.86;92.90;99704.44;5050543;28;20048;-73
2022/04/22 05:07:50;;;;;;;33.75;21.80;;;11.10;98.90;;;9.89;92.75;99699.44;5052490;28;20037;-72
2022/04/22 05:10:19;;;;;;;37.10;22.38;;;11.10;99.00;;;9.90;92.79;99694.84;5071689;28;20037;-72
2022/04/22 05:12:46;;;;;;;34.65;23.08;;;11.10;99.00;;;9.92;92.72;99693.63;5058053;28;20052;-72
2022/04/22 05:15:14;;;;;;;35.08;23.45;;;11.10;99.00;;;9.93;92.95;99697.16;5049812;28;20482;-72
2022/04/22 05:17:44;;;;;;;34.70;23.45;;;11.10;99.10;;;9.91;92.79;99691.09;5050540;28;20099;-72
2022/04/22 05:20:13;;;;;;;36.50;23.40;;;11.10;99.30;;;9.90;93.13;99689.41;5050800;28;20099;-72
2022/04/22 05:22:41;;;;;;;35.10;23.70;;;11.10;99.30;;;9.91;93.27;99693.81;5049310;28;20053;-73
2022/04/22 05:25:12;;;;;;;36.08;23.65;;;11.10;99.30;;;9.93;93.67;99697.16;5051517;28;20114;-73
2022/04/22 05:27:40;;;;;;;35.78;24.20;;;11.20;99.30;;;9.96;93.52;99694.06;5038047;28;20495;-73
2022/04/22 05:32:56;;;;;;;37.75;25.35;;;11.20;99.20;;;10.04;93.82;99691.16;5044597;28;20515;-77
2022/04/22 05:35:27;;;;;;;38.03;24.83;;;11.30;99.40;;;10.05;93.98;99690.13;5047924;28;20431;-78
2022/04/22 05:37:57;;;;;;;41.72;24.67;;;11.30;99.60;;;10.08;94.00;99694.31;5047005;28;20128;-77
2022/04/22 05:40:26;;;;;;;34.58;23.85;;;11.30;99.80;;;10.11;94.10;99689.31;5051025;28;20049;-77
2022/04/22 05:42:55;;;;;;;37.13;25.58;;;11.30;99.70;;;10.14;94.34;99702.50;5045050;28;20095;-77
2022/04/22 05:45:24;;;;;;;35.60;25.52;;;11.40;99.50;;;10.16;94.35;99694.97;5048864;28;20406;-77
2022/04/22 05:47:52;;;;;;;38.70;25.10;;;11.40;99.80;;;10.20;94.21;99697.28;5042594;28;20059;-77
2022/04/22 05:50:22;;;;;;;35.30;24.13;;;11.40;99.40;;;10.22;94.28;99698.75;5049037;28;20285;-77
2022/04/22 05:52:50;;;;;;;38.85;23.92;;;11.50;99.60;;;10.28;94.19;99699.81;5040601;28;20107;-77
2022/04/22 05:55:21;;;;;;;37.25;24.65;;;11.50;99.90;;;10.28;94.66;99697.09;5050738;28;20037;-77
2022/04/22 05:57:50;;;;;;;33.67;24.10;;;11.50;99.90;;;10.31;94.78;99691.31;5045070;28;20065;-77
2022/04/22 06:00:20;;;;;;;37.38;25.15;;;11.50;99.90;;;10.35;94.66;99681.69;5034788;28;20037;-77
2022/04/22 06:02:48;;;;;;;37.92;26.00;;;11.50;99.90;;;10.38;94.88;99684.03;5040423;28;20049;-77
2022/04/22 06:05:17;;;;;;;36.75;24.48;;;11.60;99.90;;;10.41;94.91;99686.31;5033367;28;20056;-77
2022/04/22 06:07:46;;;;;;;37.38;24.05;;;11.60;99.90;;;10.43;94.76;99681.50;5033810;28;20042;-90
2022/04/22 06:10:34;;;;;;;35.83;23.58;;;11.60;99.90;;;10.44;94.72;99680.47;5051285;28;20039;-81
2022/04/22 06:13:02;;;;;;;36.38;23.48;;;11.60;99.90;;;10.48;94.83;99681.75;5043244;28;20056;-80
2022/04/22 06:15:30;;;;;;;33.30;23.13;;;11.70;99.90;;;10.49;94.64;99675.28;5038222;28;20069;-80
2022/04/22 06:17:58;;;;;;;38.50;22.70;;;11.70;99.90;;;10.49;94.61;99678.00;5033718;28;20048;-80
2022/04/22 06:20:26;;;;;;;34.67;23.15;;;11.70;99.90;;;10.54;94.35;99674.63;5049976;28;20037;-80
2022/04/22 06:22:55;;;;;;;32.35;22.85;;;11.70;99.80;;;10.61;94.46;99677.41;5043776;28;20052;-81
2022/04/22 06:25:23;;;;;;;32.25;21.95;;;11.80;99.90;;;10.66;94.53;99672.16;5035174;28;20060;-80
2022/04/22 06:27:50;;;;;;;30.23;22.08;;;12.00;99.90;;;10.70;94.55;99679.72;5035003;28;20096;-81
2022/04/22 06:30:21;;;;;;;30.48;20.80;;;12.00;99.60;;;10.71;93.34;99665.03;5044417;28;20033;-80
2022/04/22 06:32:50;;;;;;;27.25;20.15;;;12.00;99.00;;;10.78;93.75;99672.41;5036249;28;20038;-81
2022/04/22 06:35:19;;;;;;;30.17;19.08;;;12.00;99.20;;;10.82;94.05;99666.34;5034582;28;20121;-80
2022/04/22 06:37:49;;;;;;;26.13;18.95;;;12.10;99.20;;;10.84;93.14;99672.41;5063674;28;20068;-80
2022/04/22 06:45:52;;;;;;;25.85;17.98;;;12.20;98.40;;;10.98;93.01;99656.91;5039454;28;20044;-81
2022/04/22 06:48:25;;;;;;;26.33;18.77;;;12.30;98.30;;;11.02;92.50;99662.78;5046581;28;20068;-81
2022/04/22 06:50:53;;;;;;;24.58;18.20;;;12.30;98.00;;;11.11;92.74;99658.81;5044275;28;20488;-81
2022/04/22 06:53:21;;;;;;;23.67;16.75;;;12.40;98.40;;;11.21;92.01;99667.38;5042319;28;20057;-81
2022/04/22 06:55:52;;;;;;;24.15;16.75;;;12.50;97.60;;;11.33;91.67;99659.44;5043809;28;20075;-81
2022/04/22 06:58:21;;;;;;;23.80;15.77;;;12.70;97.10;;;11.34;90.92;99659.22;5044031;28;20045;-82
2022/04/22 07:00:49;;;;;;;24.02;16.48;;;12.70;96.60;;;11.46;91.15;99650.41;5031093;28;20037;-81
2022/04/22 07:03:18;;;;;;;22.40;15.13;;;12.80;96.50;;;11.62;90.98;99649.97;5041486;28;20513;-81
2022/04/22 07:05:48;;;;;;;20.35;14.43;;;13.00;96.50;;;11.77;89.76;99654.34;5049373;28;20580;-81
2022/04/22 07:08:17;;;;;;;21.73;14.98;;;13.10;95.50;;;11.86;88.64;99650.31;5045054;28;20041;-81
2022/04/22 07:10:46;;;;;;;18.83;13.20;;;13.20;94.40;;;11.91;88.24;99659.56;5063940;28;20434;-82
2022/04/22 07:13:16;;;;;;;20.42;14.88;;;13.30;94.50;;;12.01;88.29;99653.66;5042039;28;20051;-79
2022/04/22 07:15:46;;;;;;;22.33;14.87;;;13.50;94.30;;;12.06;87.42;99655.75;5047609;28;20053;-79
2022/04/22 07:18:14;;;;;;;22.80;14.20;;;13.50;93.70;;;12.20;87.43;99651.06;5045493;28;20456;-79
2022/04/22 07:20:43;;;;;;;21.88;14.35;;;13.70;93.80;;;12.32;86.60;99660.25;5035872;28;20040;-80
2022/04/22 07:23:12;;;;;;;19.52;13.70;;;13.80;92.60;;;12.49;86.24;99649.69;5042568;28;20470;-80
2022/04/22 07:25:43;;;;;;;20.30;13.10;;;14.00;92.50;;;12.67;85.68;99651.66;5047550;28;20443;-79
2022/04/22 07:28:14;;;;;;;18.17;14.02;;;14.10;92.10;;;12.74;84.87;99647.00;5048296;28;20053;-79
2022/04/22 07:30:46;;;;;;;17.92;13.15;;;14.20;91.30;;;12.77;83.56;99652.00;5048902;28;20116;-80
2022/04/22 07:33:14;;;;;;;17.42;12.38;;;14.20;90.60;;;12.71;82.36;99664.63;5040373;28;20114;-79
2022/04/22 07:35:42;;;;;;;17.25;12.25;;;14.20;89.10;;;12.66;82.26;99648.09;5049510;28;20118;-79
2022/04/22 07:38:11;;;;;;;17.15;13.23;;;14.10;89.70;;;12.68;82.56;99661.53;5047461;28;20049;-80
2022/04/22 07:40:43;;;;;;;17.45;11.77;;;14.10;90.10;;;12.58;81.17;99658.44;5048835;28;20037;-80
2022/04/22 07:48:42;;;;;;;16.52;12.18;;;13.90;88.80;;;12.53;80.97;99645.44;5064529;28;20111;-80
2022/04/22 07:51:10;;;;;;;18.52;12.13;;;13.90;89.60;;;12.57;80.63;99646.69;5046629;28;20045;-79
2022/04/22 07:53:37;;;;;;;20.60;13.00;;;13.90;88.80;;;12.55;80.20;99634.31;5043116;28;20415;-79
2022/04/22 07:56:05;;;;;;;17.08;11.77;;;13.90;89.10;;;12.50;80.25;99638.53;5049039;28;20041;-79
2022/04/22 07:58:32;;;;;;;17.52;12.55;;;13.80;89.20;;;12.49;80.24;99638.75;5046327;28;20145;-76
2022/04/22 08:01:01;;;;;;;16.83;12.38;;;13.70;89.30;;;12.55;80.53;99637.88;5044930;28;20511;-76
2022/04/22 08:03:28;;;;;;;20.25;12.45;;;13.80;89.40;;;12.58;78.71;99642.06;5043730;28;20049;-76
2022/04/22 08:05:56;;;;;;;16.48;12.32;;;13.80;88.00;;;12.60;79.07;99639.94;5049275;28;20051;-76
2022/04/22 08:08:24;;;;;;;18.05;11.98;;;13.80;88.40;;;12.71;78.98;99658.34;5048639;28;20045;-76
2022/04/22 08:10:51;;;;;;;17.85;12.02;;;14.00;88.20;;;12.70;78.54;99640.31;5049059;28;20065;-76
2022/04/22 08:13:19;;;;;;;16.73;12.63;;;13.90;88.00;;;12.75;78.42;99637.72;5044308;28;20043;-76
2022/04/22 08:15:46;;;;;;;17.50;12.30;;;14.00;88.30;;;12.87;78.74;99635.97;5044673;28;20112;-76
2022/04/22 08:18:15;;;;;;;18.50;12.75;;;14.20;87.70;;;13.02;77.19;99621.16;5043904;28;20564;-76
2022/04/22 08:20:42;;;;;;;17.20;12.00;;;14.30;86.50;;;13.13;77.06;99623.16;5039690;28;20120;-76
2022/04/22 08:23:09;;;;;;;17.00;12.25;;;14.50;86.60;;;13.26;77.44;99641.34;5042807;28;20112;-77
2022/04/22 08:25:37;;;;;;;16.58;12.63;;;14.60;86.90;;;13.22;75.39;99640.13;5041704;28;20534;-75
2022/04/22 08:28:04;;;;;;;18.67;12.65;;;14.50;84.40;;;13.20;75.56;99628.56;5049447;28;20116;-76
2022/04/22 08:30:33;;;;;;;18.90;12.20;;;14.50;85.40;;;13.28;75.23;99636.47;5048586;28;20143;-76
2022/04/22 08:33:01;;;;;;;17.02;12.82;;;14.50;84.70;;;13.15;74.31;99642.88;5046810;28;20041;-76
2022/04/22 08:35:30;;;;;;;16.95;12.75;;;14.30;84.70;;;12.98;74.91;99648.06;5051956;28;20056;-76
2022/04/22 08:38:00;;;;;;;16.20;12.18;;;14.20;85.30;;;13.04;75.80;99641.75;5052535;28;20068;-76
2022/04/22 08:40:28;;;;;;;19.40;12.93;;;14.30;86.20;;;13.07;74.74;99646.75;5050787;28;20043;-75
2022/04/22 08:42:57;;;;;;;16.77;12.18;;;14.40;84.90;;;13.13;75.22;99639.56;5046978;28;20049;-76
2022/04/22 08:45:27;;;;;;;17.13;12.40;;;14.50;85.40;;;13.22;74.55;99638.22;5047639;28;20045;-76
2022/04/22 08:50:43;;;;;;;16.55;12.05;;;14.50;84.50;;;13.19;74.41;99633.19;5032372;28;20399;-75
2022/04/22 08:53:20;;;;;;;16.70;11.82;;;14.50;84.20;;;13.26;74.54;99635.88;5043233;28;20049;-75
2022/04/22 08:55:50;;;;;;;14.95;11.35;;;14.60;84.80;;;13.27;73.04;99637.56;5036962;28;20103;-76
2022/04/22 08:58:20;;;;;;;17.52;11.35;;;14.50;83.20;;;13.30;72.72;99629.75;5050785;28;20045;-75
2022/04/22 09:00:51;;;;;;;16.02;11.25;;;14.50;83.30;;;13.24;71.89;99633.38;5038456;28;20041;-75
2022/04/22 09:03:18;;;;;;;17.15;11.65;;;14.40;82.60;;;13.15;72.45;99636.59;5045325;28;20092;-76
2022/04/22 09:05:47;;;;;;;15.30;11.32;;;14.30;83.60;;;13.14;72.66;99624.00;5044437;28;20445;-76
2022/04/22 09:08:14;;;;;;;16.98;11.50;;;14.30;83.90;;;13.21;72.90;99624.78;5055463;28;20049;-76
2022/04/22 09:10:42;;;;;;;16.70;11.82;;;14.50;84.10;;;13.17;71.83;99632.56;5043486;28;20499;-76
2022/04/22 09:13:10;;;;;;;18.00;12.40;;;14.20;83.20;;;13.13;72.68;99623.16;5038409;28;20041;-76
2022/04/22 09:15:39;;;;;;;19.00;12.48;;;14.30;84.40;;;13.22;73.75;99621.81;5043890;28;20045;-76
2022/04/22 09:18:12;;;;;;;17.27;12.27;;;14.40;84.70;;;13.28;72.44;99637.31;5035427;28;20049;-76
2022/04/22 09:20:40;;;;;;;16.45;11.48;;;14.50;83.50;;;13.34;72.02;99632.06;5042154;28;20065;-76
2022/04/22 09:23:30;;;;;;;16.67;11.90;;;14.50;82.60;;;13.36;71.92;99624.47;5041982;28;20088;-77
2022/04/22 09:25:57;;;;;;;16.05;12.30;;;14.60;82.70;;;13.37;71.37;99617.94;5048558;28;20467;-76
2022/04/22 09:28:25;;;;;;;16.95;11.88;;;14.70;82.30;;;13.41;71.57;99609.06;5051621;28;20072;-76
2022/04/22 09:31:00;;;;;;;17.17;12.70;;;14.80;82.60;;;13.43;70.75;99608.84;5043483;28;20041;-76
2022/04/22 09:33:35;;;;;;;18.42;12.35;;;14.80;81.20;;;13.49;71.16;99605.19;5045285;28;20037;-76
2022/04/22 09:44:27;;;;;;;17.95;13.95;;;15.00;81.50;;;13.75;70.02;99586.84;5049580;28;20072;-76
2022/04/22 09:47:14;;;;;;;20.05;14.20;;;15.10;80.80;;;13.72;69.36;99585.38;5031112;28;20045;-76
2022/04/22 09:49:44;;;;;;;16.88;13.18;;;15.10;80.50;;;13.65;69.55;99588.22;5036413;28;20571;-76
2022/04/22 09:52:12;;;;;;;19.17;13.23;;;15.00;80.40;;;13.67;70.33;99585.25;5045020;28;20510;-76
2022/04/22 09:54:41;;;;;;;18.63;12.55;;;15.00;81.50;;;13.73;70.32;99583.47;5050677;28;20049;-76
2022/04/22 09:57:09;;;;;;;17.67;12.88;;;15.10;81.70;;;13.77;70.04;99584.72;5042738;28;20046;-76
2022/04/22 09:59:40;;;;;;;16.70;12.75;;;15.10;80.90;;;13.76;69.43;99583.84;5031040;28;20045;-76
2022/04/22 10:02:12;;;;;;;17.67;11.70;;;15.10;80.90;;;13.80;69.47;99578.78;5033393;28;20417;-76
2022/04/22 10:04:39;;;;;;;15.43;11.85;;;15.20;81.00;;;13.83;69.40;99572.84;5050535;28;20045;-76
2022/04/22 10:07:08;;;;;;;17.65;10.88;;;15.20;80.20;;;13.76;69.33;99572.09;5046702;28;20417;-76
2022/04/22 10:09:37;;;;;;;15.48;11.00;;;15.10;80.60;;;13.78;69.05;99570.78;5040104;28;20513;-76
2022/04/22 10:12:12;;;;;;;14.48;10.70;;;15.10;80.60;;;13.81;69.22;99567.59;5032988;28;20426;-76
2022/04/22 10:14:41;;;;;;;15.50;10.75;;;15.10;80.30;;;13.82;69.02;99566.56;5050311;28;20041;-76
2022/04/22 10:17:09;;;;;;;13.27;9.77;;;15.10;80.40;;;13.81;68.59;99559.41;5049891;28;20124;-76
2022/04/22 10:19:37;;;;;;;12.00;9.43;;;15.10;80.20;;;13.84;68.98;99561.69;5050741;28;20065;-76
2022/04/22 10:22:07;;;;;;;11.90;9.18;;;15.20;80.10;;;13.86;68.71;99556.00;5034793;28;20057;-76
2022/04/22 10:24:34;;;;;;;13.65;9.73;;;15.20;79.90;;;13.85;68.07;99565.25;5045326;28;20045;-76
2022/04/22 10:27:04;;;;;;;14.82;9.63;;;15.20;79.50;;;13.87;67.78;99557.66;5044258;28;20037;-76
2022/04/22 10:29:34;;;;;;;11.90;8.93;;;15.20;79.10;;;13.91;68.43;99556.13;5049571;28;20116;-76
2022/04/22 10:32:04;;;;;;;12.60;9.02;;;15.30;79.90;;;13.97;68.69;99546.97;5045729;28;20217;-76
2022/04/22 10:34:39;;;;;;;16.35;8.75;;;15.40;80.00;;;13.98;68.53;99543.19;5049044;28;20040;-76
2022/04/22 10:37:16;;;;;;;14.38;8.93;;;15.40;79.70;;;14.04;68.37;99542.25;5050370;28;20137;-76
2022/04/22 10:39:43;;;;;;;11.85;8.18;;;15.40;79.50;;;14.15;68.09;99542.56;5045383;28;20463;-76
2022/04/22 10:42:15;;;;;;;13.05;8.13;;;15.50;79.50;;;14.17;68.04;99535.78;5036326;28;20040;-76
2022/04/22 10:47:46;;;;;;;12.93;7.82;;;15.40;78.30;;;14.13;67.51;99539.22;5030278;28;20518;-76
2022/04/22 10:50:32;;;;;;;11.73;8.10;;;15.50;79.30;;;14.18;67.51;99561.25;5034748;28;20096;-76
2022/04/22 10:53:03;;;;;;;12.65;8.35;;;15.50;79.00;;;14.20;66.69;99534.47;5040865;28;20610;-76
2022/04/22 10:55:36;;;;;;;15.02;8.13;;;15.50;78.20;;;14.19;66.31;99532.81;5047417;28;20045;-76
2022/04/22 10:58:26;;;;;;;12.88;8.02;;;15.50;78.10;;;14.24;66.81;99531.06;5036022;28;20133;-76
2022/04/22 11:00:57;;;;;;;10.52;7.25;;;15.60;78.60;;;14.26;66.85;99533.56;5029890;28;20145;-76
2022/04/22 11:03:27;;;;;;;15.45;8.55;;;15.60;78.60;;;14.32;67.19;99551.78;5043663;28;20124;-76
2022/04/22 11:05:59;;;;;;;13.63;8.13;;;15.70;78.80;;;14.32;65.64;99551.78;5049873;28;20482;-76
2022/04/22 11:08:32;;;;;;;11.55;7.53;;;15.70;77.40;;;14.36;66.25;99547.50;5047012;28;20136;-76
2022/04/22 11:11:19;;;;;;;10.45;7.30;;;15.80;77.90;;;14.38;66.12;99537.16;5039885;28;20537;-76